createdAt,value
2022-09-26T00:00:50.987Z,14.06
2022-09-26T00:02:54.043Z,14.08
2022-09-26T00:04:57.006Z,14.07
2022-09-26T00:07:00.156Z,14.08
2022-09-26T00:09:03.185Z,14.05
2022-09-26T00:11:08.108Z,14.03
2022-09-26T00:13:11.107Z,14.02
2022-09-26T00:15:14.081Z,14.02
2022-09-26T00:17:18.528Z,14.02
2022-09-26T00:19:22.072Z,14.01
2022-09-26T00:21:25.936Z,14.00
2022-09-26T00:23:28.858Z,14.00
2022-09-26T00:25:31.822Z,13.99
2022-09-26T00:27:34.817Z,14.00
2022-09-26T00:29:37.811Z,14.02
2022-09-26T00:31:44.941Z,14.01
2022-09-26T00:33:49.395Z,14.02
2022-09-26T00:35:52.568Z,14.01
2022-09-26T00:37:55.743Z,13.98
2022-09-26T00:39:59.425Z,13.96
2022-09-26T00:42:02.380Z,13.95
2022-09-26T00:44:34.992Z,13.96
2022-09-26T00:46:39.451Z,13.94
2022-09-26T00:48:43.165Z,13.96
2022-09-26T00:50:48.438Z,13.94
2022-09-26T00:52:56.163Z,13.95
2022-09-26T00:55:01.282Z,13.96
2022-09-26T00:57:08.946Z,13.96
2022-09-26T00:59:17.039Z,13.97
2022-09-26T01:01:20.443Z,13.95
2022-09-26T01:03:24.327Z,13.95
2022-09-26T01:05:27.322Z,13.96
2022-09-26T01:07:31.698Z,13.94
2022-09-26T01:09:35.679Z,13.92
2022-09-26T01:11:39.694Z,13.91
2022-09-26T01:13:44.134Z,13.91
2022-09-26T01:15:47.105Z,13.90
2022-09-26T01:17:50.799Z,13.90
2022-09-26T01:20:03.615Z,13.90
2022-09-26T01:22:21.093Z,13.89
2022-09-26T01:24:48.729Z,13.87
2022-09-26T01:27:19.903Z,13.86
2022-09-26T01:30:02.770Z,13.84
2022-09-26T01:32:34.520Z,13.81
2022-09-26T01:34:42.128Z,13.81
2022-09-26T01:37:02.707Z,13.79
2022-09-26T01:39:16.019Z,13.78
2022-09-26T01:41:34.031Z,13.78
2022-09-26T01:43:42.992Z,13.80
2022-09-26T01:45:51.521Z,13.79
2022-09-26T01:47:59.673Z,13.79
2022-09-26T01:50:06.408Z,13.79
2022-09-26T01:52:12.630Z,13.81
2022-09-26T01:54:19.306Z,13.80
2022-09-26T01:56:24.222Z,13.79
2022-09-26T01:58:30.165Z,13.78
2022-09-26T02:00:34.642Z,13.77
2022-09-26T02:02:40.271Z,13.78
2022-09-26T02:04:46.926Z,13.78
2022-09-26T02:06:52.111Z,13.77
2022-09-26T02:08:59.154Z,13.77
2022-09-26T02:11:06.694Z,13.77
2022-09-26T02:13:12.661Z,13.75
2022-09-26T02:15:19.024Z,13.73
2022-09-26T02:17:26.303Z,13.72
2022-09-26T02:19:30.490Z,13.68
2022-09-26T02:21:35.449Z,13.66
2022-09-26T02:23:38.520Z,13.64
2022-09-26T02:25:41.577Z,13.58
2022-09-26T02:27:44.605Z,13.56
2022-09-26T02:29:47.662Z,13.57
2022-09-26T02:31:56.700Z,13.54
2022-09-26T02:34:00.329Z,13.53
2022-09-26T02:36:05.183Z,13.54
2022-09-26T02:38:09.984Z,13.55
2022-09-26T02:40:26.681Z,13.53
2022-09-26T02:42:36.566Z,13.53
2022-09-26T02:45:02.086Z,13.52
2022-09-26T02:47:25.213Z,13.48
2022-09-26T02:49:45.070Z,13.45
2022-09-26T02:52:07.338Z,13.41
2022-09-26T02:54:17.188Z,13.38
2022-09-26T02:56:36.192Z,13.34
2022-09-26T02:58:47.472Z,13.32
2022-09-26T03:00:59.188Z,13.23
2022-09-26T03:03:07.898Z,13.18
2022-09-26T03:05:12.796Z,13.13
2022-09-26T03:07:19.800Z,13.11
2022-09-26T03:09:25.571Z,13.08
2022-09-26T03:11:29.794Z,13.06
2022-09-26T03:13:35.770Z,13.06
2022-09-26T03:15:40.641Z,13.03
2022-09-26T03:17:46.007Z,13.01
2022-09-26T03:19:54.434Z,12.99
2022-09-26T03:21:58.007Z,12.96
2022-09-26T03:24:01.869Z,12.96
2022-09-26T03:26:12.466Z,12.96
2022-09-26T03:28:24.072Z,12.95
2022-09-26T03:30:27.117Z,12.94
2022-09-26T03:32:50.408Z,12.94
2022-09-26T03:34:53.368Z,12.92
2022-09-26T03:36:56.417Z,12.90
2022-09-26T03:39:00.157Z,12.90
2022-09-26T03:41:27.004Z,12.87
2022-09-26T03:43:43.685Z,12.84
2022-09-26T03:45:47.244Z,12.84
2022-09-26T03:47:57.312Z,12.83
2022-09-26T03:50:01.236Z,12.83
2022-09-26T03:52:04.603Z,12.83
2022-09-26T03:54:07.624Z,12.82
2022-09-26T03:56:12.150Z,12.83
2022-09-26T03:58:16.511Z,12.81
2022-09-26T04:00:19.785Z,12.77
2022-09-26T04:02:23.402Z,12.74
2022-09-26T04:04:40.138Z,12.76
2022-09-26T04:06:44.748Z,12.77
2022-09-26T04:08:49.288Z,12.76
2022-09-26T04:10:52.399Z,12.76
2022-09-26T04:12:56.908Z,12.76
2022-09-26T04:15:02.521Z,12.78
2022-09-26T04:17:08.255Z,12.74
2022-09-26T04:19:19.144Z,12.71
2022-09-26T04:21:22.150Z,12.67
2022-09-26T04:23:25.307Z,12.64
2022-09-26T04:25:29.260Z,12.64
2022-09-26T04:27:32.246Z,12.64
2022-09-26T04:29:35.204Z,12.61
2022-09-26T04:32:08.967Z,12.60
2022-09-26T04:34:27.321Z,12.57
2022-09-26T04:36:30.975Z,12.54
2022-09-26T04:38:34.097Z,12.51
2022-09-26T04:40:42.574Z,12.48
2022-09-26T04:42:46.239Z,12.44
2022-09-26T04:44:49.537Z,12.38
2022-09-26T04:46:52.422Z,12.32
2022-09-26T04:49:01.163Z,12.26
2022-09-26T04:51:07.108Z,12.24
2022-09-26T04:53:10.081Z,12.24
2022-09-26T04:55:23.716Z,12.24
2022-09-26T04:57:27.651Z,12.26
2022-09-26T04:59:30.721Z,12.26
2022-09-26T05:01:38.658Z,12.24
2022-09-26T05:03:50.031Z,12.22
2022-09-26T05:05:54.982Z,12.16
2022-09-26T05:07:58.223Z,12.13
2022-09-26T05:10:01.434Z,12.06
2022-09-26T05:12:06.116Z,12.01
2022-09-26T05:14:10.754Z,11.97
2022-09-26T05:16:15.130Z,11.97
2022-09-26T05:18:19.051Z,11.95
2022-09-26T05:20:24.658Z,11.91
2022-09-26T05:22:37.585Z,11.90
2022-09-26T05:24:58.072Z,11.87
2022-09-26T05:27:01.305Z,11.84
2022-09-26T05:29:08.580Z,11.78
2022-09-26T05:31:33.881Z,11.72
2022-09-26T05:33:38.497Z,11.68
2022-09-26T05:35:42.434Z,11.60
2022-09-26T05:37:46.821Z,11.56
2022-09-26T05:40:07.442Z,11.53
2022-09-26T05:42:15.337Z,11.50
2022-09-26T05:44:20.034Z,11.50
2022-09-26T05:46:23.166Z,11.49
2022-09-26T05:48:29.153Z,11.50
2022-09-26T05:50:32.635Z,11.56
2022-09-26T05:52:35.749Z,11.63
2022-09-26T05:54:40.250Z,11.68
2022-09-26T05:57:03.198Z,11.71
2022-09-26T05:59:26.603Z,11.74
2022-09-26T06:02:01.476Z,11.76
2022-09-26T06:04:24.411Z,11.76
2022-09-26T06:06:48.733Z,11.77
2022-09-26T06:08:53.364Z,11.77
2022-09-26T06:11:06.055Z,11.76
2022-09-26T06:13:09.230Z,11.75
2022-09-26T06:15:19.296Z,11.79
2022-09-26T06:17:22.248Z,11.83
2022-09-26T06:19:25.329Z,11.87
2022-09-26T06:21:28.707Z,11.94
2022-09-26T06:23:38.661Z,12.00
2022-09-26T06:25:43.485Z,12.07
2022-09-26T06:27:48.790Z,12.17
2022-09-26T06:29:51.826Z,12.27
2022-09-26T06:31:54.899Z,12.39
2022-09-26T06:34:18.230Z,12.50
2022-09-26T06:36:25.181Z,12.55
2022-09-26T06:38:29.314Z,12.60
2022-09-26T06:40:33.655Z,12.64
2022-09-26T06:42:37.918Z,12.65
2022-09-26T06:45:09.993Z,12.68
2022-09-26T06:47:32.221Z,12.71
2022-09-26T06:49:54.732Z,12.76
2022-09-26T06:52:02.927Z,12.78
2022-09-26T06:54:06.013Z,12.84
2022-09-26T06:56:09.020Z,12.91
2022-09-26T06:58:11.997Z,12.96
2022-09-26T07:00:30.541Z,13.07
2022-09-26T07:02:50.971Z,13.20
2022-09-26T07:05:02.746Z,13.46
2022-09-26T07:07:09.368Z,13.58
2022-09-26T07:09:12.903Z,13.73
2022-09-26T07:12:02.789Z,14.09
2022-09-26T07:14:02.117Z,14.21
2022-09-26T07:16:07.513Z,14.35
2022-09-26T07:18:28.237Z,14.62
2022-09-26T07:20:56.627Z,14.64
2022-09-26T07:23:23.882Z,14.64
2022-09-26T07:25:26.907Z,14.62
2022-09-26T07:27:30.316Z,14.55
2022-09-26T07:29:34.596Z,14.52
2022-09-26T07:31:39.269Z,14.56
2022-09-26T07:33:42.326Z,14.60
2022-09-26T07:35:48.845Z,14.61
2022-09-26T07:37:52.778Z,14.65
2022-09-26T07:40:00.717Z,14.65
2022-09-26T07:42:05.951Z,14.68
2022-09-26T07:46:49.849Z,15.11
2022-09-26T07:49:12.599Z,15.72
2022-09-26T07:51:33.801Z,15.88
2022-09-26T07:53:41.375Z,15.91
2022-09-26T07:56:11.476Z,16.37
2022-09-26T07:58:35.937Z,16.75
2022-09-26T08:00:46.314Z,16.67
2022-09-26T08:03:04.871Z,16.73
2022-09-26T08:05:12.937Z,16.74
2022-09-26T08:07:16.177Z,16.64
2022-09-26T08:09:33.129Z,16.50
2022-09-26T08:11:55.772Z,16.40
2022-09-26T08:14:11.750Z,16.35
2022-09-26T08:16:39.419Z,16.34
2022-09-26T08:18:42.572Z,16.31
2022-09-26T08:20:48.295Z,16.30
2022-09-26T08:22:51.355Z,16.32
2022-09-26T08:24:55.359Z,16.30
2022-09-26T08:27:25.859Z,16.28
2022-09-26T08:29:30.935Z,16.29
2022-09-26T08:31:35.099Z,16.32
2022-09-26T08:33:38.811Z,16.33
2022-09-26T08:35:42.146Z,16.36
2022-09-26T08:37:53.386Z,16.37
2022-09-26T08:40:14.970Z,16.37
2022-09-26T08:43:04.496Z,16.37
2022-09-26T08:45:55.634Z,16.36
2022-09-26T08:48:06.807Z,16.23
2022-09-26T08:50:20.447Z,16.23
2022-09-26T08:52:30.603Z,16.32
2022-09-26T08:54:37.326Z,16.37
2022-09-26T08:56:42.995Z,16.40
2022-09-26T08:58:51.940Z,16.32
2022-09-26T09:00:58.962Z,16.31
2022-09-26T09:03:06.806Z,16.31
2022-09-26T09:05:15.903Z,16.33
2022-09-26T09:07:23.481Z,16.39
2022-09-26T09:09:26.771Z,16.46
2022-09-26T09:12:08.493Z,16.60
2022-09-26T09:14:23.485Z,16.79
2022-09-26T09:16:51.426Z,16.93
2022-09-26T09:19:09.163Z,17.02
2022-09-26T09:21:44.156Z,17.23
2022-09-26T09:24:12.828Z,17.49
2022-09-26T09:29:04.605Z,17.73
2022-09-26T09:31:10.554Z,17.72
2022-09-26T09:33:29.163Z,17.81
2022-09-26T09:35:58.636Z,17.99
2022-09-26T09:38:21.753Z,18.10
2022-09-26T09:40:39.517Z,18.15
2022-09-26T09:42:44.893Z,18.22
2022-09-26T09:44:53.651Z,18.30
2022-09-26T09:46:56.691Z,18.36
2022-09-26T09:49:21.151Z,18.41
2022-09-26T09:51:38.365Z,18.38
2022-09-26T09:53:57.841Z,18.16
2022-09-26T09:56:08.267Z,17.93
2022-09-26T09:58:23.115Z,17.88
2022-09-26T10:00:28.890Z,17.91
2022-09-26T10:02:48.822Z,17.89
2022-09-26T10:05:02.605Z,17.82
2022-09-26T10:07:05.816Z,17.80
2022-09-26T10:09:38.183Z,18.00
2022-09-26T10:12:20.269Z,18.09
2022-09-26T10:14:46.089Z,17.99
2022-09-26T10:17:18.509Z,17.76
2022-09-26T10:19:36.334Z,17.46
2022-09-26T10:21:41.585Z,17.29
2022-09-26T10:23:48.881Z,17.32
2022-09-26T10:26:12.169Z,17.76
2022-09-26T10:28:25.599Z,17.77
2022-09-26T10:30:33.050Z,17.75
2022-09-26T10:32:48.570Z,17.69
2022-09-26T10:35:19.944Z,17.53
2022-09-26T10:37:25.465Z,17.36
2022-09-26T10:40:11.095Z,17.15
2022-09-26T10:42:20.091Z,17.10
2022-09-26T10:44:27.034Z,17.07
2022-09-26T10:46:56.399Z,17.02
2022-09-26T10:49:17.026Z,16.95
2022-09-26T10:51:43.162Z,17.00
2022-09-26T10:53:52.043Z,17.02
2022-09-26T10:55:57.693Z,16.95
2022-09-26T10:58:04.258Z,16.91
2022-09-26T11:00:09.074Z,16.94
2022-09-26T11:02:19.950Z,16.91
2022-09-26T11:04:44.306Z,16.86
2022-09-26T11:07:24.774Z,16.87
2022-09-26T11:09:38.274Z,17.07
2022-09-26T11:12:23.900Z,17.39
2022-09-26T11:14:29.753Z,17.51
2022-09-26T11:16:41.737Z,17.52
2022-09-26T11:18:50.848Z,17.54
2022-09-26T11:20:58.454Z,17.54
2022-09-26T11:23:08.151Z,17.51
2022-09-26T11:25:15.428Z,17.49
2022-09-26T11:27:27.175Z,17.46
2022-09-26T11:29:39.408Z,17.39
2022-09-26T11:31:48.536Z,17.18
2022-09-26T11:34:28.836Z,17.11
2022-09-26T11:37:12.229Z,17.08
2022-09-26T11:39:26.458Z,16.94
2022-09-26T11:41:40.757Z,16.88
2022-09-26T11:43:53.139Z,16.87
2022-09-26T11:46:31.464Z,16.80
2022-09-26T11:49:05.159Z,16.81
2022-09-26T11:51:40.598Z,16.88
2022-09-26T11:54:00.859Z,16.92
2022-09-26T11:56:15.980Z,16.99
2022-09-26T11:58:23.902Z,17.09
2022-09-26T12:00:33.078Z,17.15
2022-09-26T12:02:47.371Z,17.07
2022-09-26T12:05:02.060Z,17.06
2022-09-26T12:07:11.519Z,17.07
2022-09-26T12:09:27.708Z,17.03
2022-09-26T12:11:37.253Z,17.12
2022-09-26T12:13:48.316Z,17.21
2022-09-26T12:15:56.165Z,17.26
2022-09-26T12:18:13.184Z,17.33
2022-09-26T12:20:25.446Z,17.50
2022-09-26T12:22:33.308Z,17.50
2022-09-26T12:24:45.425Z,17.50
2022-09-26T12:26:55.147Z,17.54
2022-09-26T12:29:09.188Z,17.53
2022-09-26T12:31:19.665Z,17.44
2022-09-26T12:33:35.856Z,17.35
2022-09-26T12:35:48.953Z,16.79
2022-09-26T12:38:28.311Z,15.60
2022-09-26T12:40:48.493Z,14.31
2022-09-26T12:43:31.590Z,13.79
2022-09-26T12:45:53.199Z,13.85
2022-09-26T12:48:12.397Z,14.07
2022-09-26T12:50:18.474Z,14.26
2022-09-26T12:52:33.472Z,14.38
2022-09-26T12:54:55.922Z,14.56
2022-09-26T12:57:06.855Z,14.73
2022-09-26T12:59:19.528Z,14.91
2022-09-26T13:01:36.007Z,15.10
2022-09-26T13:03:55.644Z,15.27
2022-09-26T13:06:29.675Z,15.54
2022-09-26T13:08:36.837Z,15.76
2022-09-26T13:10:48.454Z,15.93
2022-09-26T13:13:10.128Z,16.02
2022-09-26T13:15:23.425Z,16.01
2022-09-26T13:17:30.060Z,15.96
2022-09-26T13:19:35.582Z,16.06
2022-09-26T13:21:44.768Z,16.21
2022-09-26T13:23:52.556Z,16.36
2022-09-26T13:25:59.168Z,16.45
2022-09-26T13:28:07.088Z,16.50
2022-09-26T13:30:17.515Z,16.58
2022-09-26T13:32:25.440Z,16.46
2022-09-26T13:34:31.249Z,16.38
2022-09-26T13:36:35.294Z,16.38
2022-09-26T13:38:46.122Z,16.46
2022-09-26T13:40:54.802Z,16.52
2022-09-26T13:43:08.630Z,16.49
2022-09-26T13:45:22.590Z,16.43
2022-09-26T13:47:35.738Z,16.12
2022-09-26T13:49:50.960Z,15.90
2022-09-26T13:52:02.015Z,15.61
2022-09-26T13:54:13.156Z,15.54
2022-09-26T13:56:44.034Z,15.55
2022-09-26T13:58:48.977Z,15.56
2022-09-26T14:00:55.112Z,15.59
2022-09-26T14:03:35.460Z,15.58
2022-09-26T14:05:49.307Z,15.62
2022-09-26T14:08:19.140Z,15.58
2022-09-26T14:10:36.269Z,15.41
2022-09-26T14:13:08.372Z,15.36
2022-09-26T14:15:24.447Z,15.40
2022-09-26T14:18:03.371Z,15.45
2022-09-26T14:20:06.756Z,15.49
2022-09-26T14:22:34.657Z,15.57
2022-09-26T14:24:39.543Z,15.61
2022-09-26T14:26:43.281Z,15.71
2022-09-26T14:28:54.329Z,15.81
2022-09-26T14:31:19.619Z,15.98
2022-09-26T14:33:24.524Z,16.06
2022-09-26T14:35:30.115Z,16.12
2022-09-26T14:37:35.115Z,16.11
2022-09-26T14:39:41.655Z,16.04
2022-09-26T14:41:44.712Z,15.98
2022-09-26T14:43:48.707Z,15.95
2022-09-26T14:45:53.701Z,15.92
2022-09-26T14:48:15.277Z,15.98
2022-09-26T14:50:20.765Z,15.99
2022-09-26T14:52:25.273Z,15.91
2022-09-26T14:54:31.968Z,15.98
2022-09-26T14:56:44.795Z,16.02
2022-09-26T14:58:50.831Z,16.02
2022-09-26T15:00:55.874Z,16.00
2022-09-26T15:03:01.285Z,15.90
2022-09-26T15:05:14.080Z,15.77
2022-09-26T15:07:21.282Z,15.80
2022-09-26T15:09:29.802Z,15.80
2022-09-26T15:11:39.961Z,15.78
2022-09-26T15:13:46.523Z,15.82
2022-09-26T15:15:58.984Z,15.86
2022-09-26T15:18:08.200Z,15.89
2022-09-26T15:20:16.874Z,15.86
2022-09-26T15:22:23.710Z,15.88
2022-09-26T15:24:29.034Z,15.85
2022-09-26T15:26:34.726Z,15.87
2022-09-26T15:28:38.961Z,15.93
2022-09-26T15:30:42.755Z,15.92
2022-09-26T15:32:49.158Z,15.83
2022-09-26T15:34:53.087Z,15.86
2022-09-26T15:36:58.496Z,15.90
2022-09-26T15:39:02.591Z,15.84
2022-09-26T15:41:06.042Z,15.74
2022-09-26T15:43:20.385Z,15.62
2022-09-26T15:45:30.201Z,15.64
2022-09-26T15:47:41.655Z,15.69
2022-09-26T15:49:44.792Z,15.66
2022-09-26T15:51:51.004Z,15.69
2022-09-26T15:53:58.900Z,15.64
2022-09-26T15:56:04.184Z,15.63
2022-09-26T15:58:08.092Z,15.58
2022-09-26T16:00:15.107Z,15.47
2022-09-26T16:02:23.832Z,15.37
2022-09-26T16:04:28.146Z,15.33
2022-09-26T16:06:34.168Z,15.36
2022-09-26T16:08:41.538Z,15.37
2022-09-26T16:10:53.996Z,15.30
2022-09-26T16:12:58.277Z,15.22
2022-09-26T16:15:04.112Z,15.16
2022-09-26T16:17:21.446Z,15.11
2022-09-26T16:19:31.045Z,15.05
2022-09-26T16:21:36.582Z,15.06
2022-09-26T16:23:46.344Z,14.95
2022-09-26T16:25:54.916Z,14.94
2022-09-26T16:28:04.094Z,14.86
2022-09-26T16:30:40.472Z,14.87
2022-09-26T16:32:43.878Z,14.89
2022-09-26T16:34:47.049Z,14.87
2022-09-26T16:36:51.022Z,14.82
2022-09-26T16:38:56.661Z,14.78
2022-09-26T16:41:08.780Z,14.74
2022-09-26T16:43:18.891Z,14.74
2022-09-26T16:45:22.676Z,14.70
2022-09-26T16:47:42.889Z,14.67
2022-09-26T16:49:47.395Z,14.68
2022-09-26T16:52:11.741Z,14.76
2022-09-26T16:54:20.756Z,14.78
2022-09-26T16:56:25.699Z,14.67
2022-09-26T16:58:28.914Z,14.68
2022-09-26T17:00:52.565Z,14.74
2022-09-26T17:02:56.020Z,14.74
2022-09-26T17:04:59.279Z,14.75
2022-09-26T17:07:09.465Z,14.75
2022-09-26T17:09:17.600Z,14.75
2022-09-26T17:11:20.964Z,14.77
2022-09-26T17:13:27.047Z,14.79
2022-09-26T17:15:30.786Z,14.77
2022-09-26T17:17:35.047Z,14.77
2022-09-26T17:19:40.120Z,14.77
2022-09-26T17:21:44.017Z,14.78
2022-09-26T17:23:48.854Z,14.77
2022-09-26T17:25:57.465Z,14.79
2022-09-26T17:28:01.690Z,14.82
2022-09-26T17:30:11.720Z,14.86
2022-09-26T17:32:17.201Z,14.89
2022-09-26T17:34:21.054Z,14.91
2022-09-26T17:36:25.708Z,14.89
2022-09-26T17:38:28.910Z,14.89
2022-09-26T17:40:33.618Z,14.89
2022-09-26T17:42:36.785Z,14.91
2022-09-26T17:44:41.689Z,14.91
2022-09-26T17:46:48.882Z,14.92
2022-09-26T17:48:52.134Z,14.94
2022-09-26T17:50:55.780Z,14.96
2022-09-26T17:53:00.037Z,14.99
2022-09-26T17:55:05.863Z,15.03
2022-09-26T17:57:11.731Z,15.07
2022-09-26T17:59:21.960Z,15.08
2022-09-26T18:01:27.054Z,15.10
2022-09-26T18:03:34.182Z,15.12
2022-09-26T18:05:39.021Z,15.13
2022-09-26T18:07:43.375Z,15.15
2022-09-26T18:09:46.502Z,15.15
2022-09-26T18:11:55.724Z,15.16
2022-09-26T18:13:59.337Z,15.15
2022-09-26T18:16:03.231Z,15.17
2022-09-26T18:18:12.222Z,15.21
2022-09-26T18:20:17.276Z,15.19
2022-09-26T18:22:22.861Z,15.19
2022-09-26T18:24:29.096Z,15.19
2022-09-26T18:26:33.808Z,15.18
2022-09-26T18:28:38.873Z,15.19
2022-09-26T18:30:44.097Z,15.21
2022-09-26T18:32:50.843Z,15.22
2022-09-26T18:34:54.141Z,15.24
2022-09-26T18:37:00.248Z,15.23
2022-09-26T18:39:04.995Z,15.21
2022-09-26T18:41:08.207Z,15.21
2022-09-26T18:43:12.744Z,15.23
2022-09-26T18:45:19.918Z,15.22
2022-09-26T18:47:23.161Z,15.23
2022-09-26T18:49:27.168Z,15.21
2022-09-26T18:51:30.499Z,15.20
2022-09-26T18:53:37.473Z,15.19
2022-09-26T18:55:58.135Z,15.20
2022-09-26T18:58:18.815Z,15.20
2022-09-26T19:00:22.149Z,15.20
2022-09-26T19:02:27.534Z,15.19
2022-09-26T19:04:31.604Z,15.15
2022-09-26T19:06:37.177Z,15.12
2022-09-26T19:08:43.341Z,15.11
2022-09-26T19:10:46.600Z,15.13
2022-09-26T19:12:49.760Z,15.09
2022-09-26T19:14:52.839Z,15.10
2022-09-26T19:16:56.632Z,15.10
2022-09-26T19:18:59.755Z,15.10
2022-09-26T19:21:04.317Z,15.08
2022-09-26T19:23:07.439Z,15.08
2022-09-26T19:25:12.495Z,15.06
2022-09-26T19:27:18.418Z,15.06
2022-09-26T19:29:28.199Z,15.03
2022-09-26T19:31:31.523Z,15.06
2022-09-26T19:33:34.668Z,15.04
2022-09-26T19:35:40.213Z,15.05
2022-09-26T19:37:43.400Z,15.09
2022-09-26T19:39:46.586Z,15.10
2022-09-26T19:41:51.354Z,15.11
2022-09-26T19:43:54.579Z,15.11
2022-09-26T19:45:58.405Z,15.12
2022-09-26T19:48:02.737Z,15.13
2022-09-26T19:50:08.229Z,15.14
2022-09-26T19:52:15.022Z,15.16
2022-09-26T19:54:19.698Z,15.17
2022-09-26T19:56:23.384Z,15.18
2022-09-26T19:58:28.948Z,15.17
2022-09-26T20:00:39.685Z,15.15
2022-09-26T20:02:43.630Z,15.05
2022-09-26T20:04:47.551Z,15.06
2022-09-26T20:06:50.903Z,15.04
2022-09-26T20:09:01.198Z,15.01
2022-09-26T20:11:05.091Z,14.97
2022-09-26T20:13:08.449Z,14.94
2022-09-26T20:15:14.091Z,14.94
2022-09-26T20:17:23.609Z,14.93
2022-09-26T20:19:33.275Z,14.93
2022-09-26T20:21:36.564Z,14.92
2022-09-26T20:23:47.133Z,14.91
2022-09-26T20:25:51.855Z,14.89
2022-09-26T20:27:55.102Z,14.88
2022-09-26T20:30:15.708Z,14.85
2022-09-26T20:32:20.725Z,14.78
2022-09-26T20:34:23.813Z,14.73
2022-09-26T20:36:29.069Z,14.75
2022-09-26T20:38:35.708Z,14.72
2022-09-26T20:40:38.892Z,14.69
2022-09-26T20:42:45.262Z,14.66
2022-09-26T20:44:49.036Z,14.68
2022-09-26T20:46:53.756Z,14.66
2022-09-26T20:48:58.483Z,14.71
2022-09-26T20:51:02.156Z,14.72
2022-09-26T20:53:05.486Z,14.67
2022-09-26T20:55:15.122Z,14.61
2022-09-26T20:57:19.626Z,14.59
2022-09-26T20:59:23.199Z,14.47
2022-09-26T21:01:28.177Z,14.35
2022-09-26T21:03:31.601Z,14.22
2022-09-26T21:05:36.376Z,14.17
2022-09-26T21:07:39.603Z,14.15
2022-09-26T21:09:42.822Z,14.08
2022-09-26T21:11:46.004Z,13.94
2022-09-26T21:13:49.130Z,13.90
2022-09-26T21:15:52.741Z,13.81
2022-09-26T21:17:56.446Z,13.73
2022-09-26T21:19:59.556Z,13.64
2022-09-26T21:22:25.333Z,13.41
2022-09-26T21:24:30.951Z,13.30
2022-09-26T21:26:34.203Z,13.26
2022-09-26T21:28:37.316Z,13.20
2022-09-26T21:30:40.434Z,13.16
2022-09-26T21:32:45.937Z,13.18
2022-09-26T21:34:55.482Z,13.22
2022-09-26T21:36:59.494Z,13.30
2022-09-26T21:39:04.128Z,13.32
2022-09-26T21:41:07.686Z,13.37
2022-09-26T21:43:15.387Z,13.38
2022-09-26T21:45:23.619Z,13.33
2022-09-26T21:47:29.564Z,13.20
2022-09-26T21:49:32.856Z,13.16
2022-09-26T21:51:36.507Z,13.13
2022-09-26T21:53:41.917Z,13.13
2022-09-26T21:55:50.171Z,13.16
2022-09-26T21:57:54.419Z,13.12
2022-09-26T21:59:58.851Z,13.05
2022-09-26T22:02:02.142Z,12.89
2022-09-26T22:04:05.979Z,12.86
2022-09-26T22:06:10.515Z,12.82
2022-09-26T22:08:13.558Z,12.72
2022-09-26T22:10:17.267Z,12.58
2022-09-26T22:12:22.203Z,12.45
2022-09-26T22:14:25.419Z,12.30
2022-09-26T22:16:28.698Z,12.22
2022-09-26T22:18:31.908Z,12.21
2022-09-26T22:20:35.472Z,12.14
2022-09-26T22:22:38.678Z,12.17
2022-09-26T22:24:41.803Z,12.21
2022-09-26T22:26:45.086Z,12.17
2022-09-26T22:28:50.051Z,12.16
2022-09-26T22:30:53.905Z,12.12
2022-09-26T22:32:57.151Z,12.16
2022-09-26T22:35:00.206Z,12.19
2022-09-26T22:37:03.411Z,12.21
2022-09-26T22:39:06.968Z,12.11
2022-09-26T22:41:10.788Z,12.04
2022-09-26T22:43:13.826Z,12.01
2022-09-26T22:45:18.509Z,11.93
2022-09-26T22:47:22.706Z,11.96
2022-09-26T22:49:25.777Z,11.91
2022-09-26T22:51:29.365Z,11.91
2022-09-26T22:53:33.004Z,11.89
2022-09-26T22:55:36.412Z,11.85
2022-09-26T22:57:39.581Z,11.88
2022-09-26T22:59:42.668Z,11.91
2022-09-26T23:01:47.212Z,11.94
2022-09-26T23:03:50.476Z,11.93
2022-09-26T23:05:53.515Z,11.95
2022-09-26T23:07:56.599Z,12.00
2022-09-26T23:10:00.682Z,12.05
2022-09-26T23:12:03.691Z,12.12
2022-09-26T23:14:06.724Z,12.14
2022-09-26T23:16:11.468Z,12.17
2022-09-26T23:18:16.407Z,12.13
2022-09-26T23:20:19.456Z,12.11
2022-09-26T23:22:22.519Z,12.13
2022-09-26T23:24:25.725Z,12.13
2022-09-26T23:26:31.208Z,12.07
2022-09-26T23:28:34.794Z,12.02
2022-09-26T23:30:38.350Z,12.01
2022-09-26T23:32:41.511Z,12.02
2022-09-26T23:34:45.933Z,12.00
2022-09-26T23:36:48.972Z,12.02
2022-09-26T23:38:52.174Z,12.07
2022-09-26T23:40:55.663Z,12.06
2022-09-26T23:42:59.134Z,12.09
2022-09-26T23:45:02.190Z,12.10
2022-09-26T23:47:05.378Z,12.14
2022-09-26T23:49:08.609Z,12.20
2022-09-26T23:51:13.265Z,12.27
2022-09-26T23:53:17.094Z,12.32
2022-09-26T23:55:20.184Z,12.32
2022-09-26T23:57:23.464Z,12.36
2022-09-26T23:59:26.528Z,12.40
